Time;durP1;ratioP1;P1;durP2;ratioP2;P2;SDS_P1;SDS_P2;PMS_P1;PMS_P2;Temp;Humidity;BMP_temperature;BMP_pressure;BME280_temperature;BME280_humidity;BME280_pressure;Samples;Min_cycle;Max_cycle;Signal;HPM_P1;HPM_P2
2023/06/17 00:00:09;;;;;;;;;;;;;;;19.51;91.80;100432.59;107408;1257;113663;-67
2023/06/17 00:02:57;;;;;;;;;;;;;;;19.48;92.01;100435.61;107370;1254;110712;-67
2023/06/17 00:05:26;;;;;;;;;;;;;;;19.50;92.92;100438.08;107405;1253;107031;-65
2023/06/17 00:07:54;;;;;;;;;;;;;;;19.50;93.27;100433.47;107374;1253;99318;-66
2023/06/17 00:10:22;;;;;;;;;;;;;;;19.46;92.47;100433.45;107409;1254;99087;-65
2023/06/17 00:12:50;;;;;;;;;;;;;;;19.42;92.48;100434.90;107424;1254;113825;-66
2023/06/17 00:15:20;;;;;;;;;;;;;;;19.43;92.79;100436.42;107381;1257;110658;-67
2023/06/17 00:17:50;;;;;;;;;;;;;;;19.42;92.87;100436.45;107407;1254;107927;-66
2023/06/17 00:20:18;;;;;;;;;;;;;;;19.35;92.29;100433.69;107411;1254;99208;-69
2023/06/17 00:22:46;;;;;;;;;;;;;;;19.31;92.29;100426.67;107307;1254;99164;-65
2023/06/17 00:25:15;;;;;;;;;;;;;;;19.30;92.20;100424.20;107342;1254;111121;-66
2023/06/17 00:27:43;;;;;;;;;;;;;;;19.29;92.22;100415.95;107447;1254;110308;-65
2023/06/17 00:30:12;;;;;;;;;;;;;;;19.27;92.17;100419.30;107323;1254;108689;-65
2023/06/17 00:32:40;;;;;;;;;;;;;;;19.28;92.57;100416.79;107444;1254;99061;-65
2023/06/17 00:35:09;;;;;;;;;;;;;;;19.28;92.31;100414.39;107413;1254;99167;-66
2023/06/17 00:37:37;;;;;;;;;;;;;;;19.29;92.58;100416.16;107420;1254;113374;-65
2023/06/17 00:40:09;;;;;;;;;;;;;;;19.28;92.62;100411.67;107365;1259;110401;-66
2023/06/17 00:42:39;;;;;;;;;;;;;;;19.24;92.23;100411.80;107461;1254;106820;-65
2023/06/17 00:45:08;;;;;;;;;;;;;;;19.22;92.19;100409.89;107415;1253;99169;-66
2023/06/17 00:47:38;;;;;;;;;;;;;;;19.24;92.61;100407.85;107452;1254;99050;-66
2023/06/17 00:50:09;;;;;;;;;;;;;;;19.23;92.64;100405.16;107340;1254;113074;-66
2023/06/17 00:52:37;;;;;;;;;;;;;;;19.23;92.87;100399.58;107347;1254;109283;-67
2023/06/17 00:55:10;;;;;;;;;;;;;;;19.21;92.48;100401.11;107384;1253;109198;-66
2023/06/17 00:57:38;;;;;;;;;;;;;;;19.24;93.20;100396.73;107283;1254;99188;-67
2023/06/17 01:00:10;;;;;;;;;;;;;;;19.29;93.50;100393.02;107381;1257;99811;-65
2023/06/17 01:02:40;;;;;;;;;;;;;;;19.33;93.76;100395.16;107437;1254;112493;-66
2023/06/17 01:05:11;;;;;;;;;;;;;;;19.29;92.59;100395.23;107334;1254;109770;-66
2023/06/17 01:07:42;;;;;;;;;;;;;;;19.22;92.49;100395.71;107424;1254;106994;-66
2023/06/17 01:10:10;;;;;;;;;;;;;;;19.25;93.28;100394.47;107286;1254;99179;-67
2023/06/17 01:12:40;;;;;;;;;;;;;;;19.28;93.53;100390.29;107462;1254;99247;-64
2023/06/17 01:15:10;;;;;;;;;;;;;;;19.30;93.49;100394.07;107469;1254;113040;-65
2023/06/17 01:17:44;;;;;;;;;;;;;;;19.34;93.46;100393.04;107470;1257;110156;-65
2023/06/17 01:20:17;;;;;;;;;;;;;;;19.36;93.05;100392.79;107418;1254;107075;-66
2023/06/17 01:22:48;;;;;;;;;;;;;;;19.35;92.92;100389.77;107414;1254;99165;-67
2023/06/17 01:25:19;;;;;;;;;;;;;;;19.37;93.00;100383.07;107410;1254;99157;-66
2023/06/17 01:27:49;;;;;;;;;;;;;;;19.37;92.81;100383.31;107394;1254;113561;-66
2023/06/17 01:30:18;;;;;;;;;;;;;;;19.36;92.59;100382.56;107414;1253;109906;-67
2023/06/17 01:32:49;;;;;;;;;;;;;;;19.37;92.98;100384.70;107398;1254;108798;-65
2023/06/17 01:35:18;;;;;;;;;;;;;;;19.38;93.21;100380.09;107348;1257;99070;-66
2023/06/17 01:37:49;;;;;;;;;;;;;;;19.41;93.14;100383.13;107422;1254;99057;-66
2023/06/17 01:40:19;;;;;;;;;;;;;;;19.41;93.04;100379.27;107430;1254;112878;-65
2023/06/17 01:42:50;;;;;;;;;;;;;;;19.43;93.45;100383.95;107441;1254;109913;-65
2023/06/17 01:45:19;;;;;;;;;;;;;;;19.43;93.17;100380.31;107283;1255;108182;-66
2023/06/17 01:47:54;;;;;;;;;;;;;;;19.45;93.47;100381.13;107209;1255;99158;-66
2023/06/17 01:50:22;;;;;;;;;;;;;;;19.45;93.22;100383.98;107265;1254;99074;-65
2023/06/17 01:52:51;;;;;;;;;;;;;;;19.46;93.10;100381.75;107339;1254;112831;-65
2023/06/17 01:55:20;;;;;;;;;;;;;;;19.46;93.13;100380.84;107232;1260;110234;-65
2023/06/17 01:57:48;;;;;;;;;;;;;;;19.46;92.97;100379.91;107411;1254;108591;-66
2023/06/17 02:00:16;;;;;;;;;;;;;;;19.46;92.78;100381.84;107422;1254;99061;-66
2023/06/17 02:02:55;;;;;;;;;;;;;;;19.46;92.63;100377.55;107448;1254;99038;-65
2023/06/17 02:05:24;;;;;;;;;;;;;;;19.43;91.95;100375.77;107466;1254;111597;-66
2023/06/17 02:07:55;;;;;;;;;;;;;;;19.40;92.22;100376.83;107408;1254;108529;-66
2023/06/17 02:10:23;;;;;;;;;;;;;;;19.38;92.13;100376.56;107362;1254;107405;-65
2023/06/17 02:12:51;;;;;;;;;;;;;;;19.35;92.31;100377.98;107332;1254;99247;-65
2023/06/17 02:15:20;;;;;;;;;;;;;;;19.30;92.38;100375.20;107472;1254;99064;-66
2023/06/17 02:17:48;;;;;;;;;;;;;;;19.23;92.46;100375.20;107438;1254;113235;-66
2023/06/17 02:20:19;;;;;;;;;;;;;;;19.17;92.77;100373.80;107439;1254;108224;-67
2023/06/17 02:22:48;;;;;;;;;;;;;;;19.14;92.88;100378.02;107406;1254;108082;-66
2023/06/17 02:25:17;;;;;;;;;;;;;;;19.11;92.69;100378.29;107434;1254;99191;-66
2023/06/17 02:27:45;;;;;;;;;;;;;;;19.12;93.33;100379.43;107509;1257;99175;-66
2023/06/17 02:30:13;;;;;;;;;;;;;;;19.17;93.76;100375.34;107376;1254;112694;-65
2023/06/17 02:32:42;;;;;;;;;;;;;;;19.21;93.93;100379.55;107381;1255;109992;-65
2023/06/17 02:35:13;;;;;;;;;;;;;;;19.24;93.63;100380.02;107286;1254;108278;-66
2023/06/17 02:37:43;;;;;;;;;;;;;;;19.23;93.14;100380.19;107534;1254;99134;-65
2023/06/17 02:40:11;;;;;;;;;;;;;;;19.21;93.44;100380.19;107495;1254;99064;-64
2023/06/17 02:42:40;;;;;;;;;;;;;;;19.19;93.00;100378.84;107420;1254;110717;-65
2023/06/17 02:45:11;;;;;;;;;;;;;;;19.19;93.19;100381.20;107361;1254;110855;-65
2023/06/17 02:47:40;;;;;;;;;;;;;;;19.23;93.18;100380.90;107387;1254;108808;-65
2023/06/17 02:50:10;;;;;;;;;;;;;;;19.24;93.20;100386.60;107398;1256;99060;-65
2023/06/17 02:52:38;;;;;;;;;;;;;;;19.23;92.81;100390.84;107454;1254;99175;-65
2023/06/17 02:55:07;;;;;;;;;;;;;;;19.17;93.42;100393.46;107427;1254;112724;-67
2023/06/17 02:57:35;;;;;;;;;;;;;;;19.11;93.79;100398.13;107334;1255;108897;-65
2023/06/17 03:00:06;;;;;;;;;;;;;;;19.11;94.19;100396.84;107286;1254;108770;-66
2023/06/17 03:02:34;;;;;;;;;;;;;;;19.12;94.58;100401.08;107393;1254;99183;-66
2023/06/17 03:05:03;;;;;;;;;;;;;;;19.11;94.21;100399.22;107289;1254;99192;-66
2023/06/17 03:07:35;;;;;;;;;;;;;;;19.13;94.18;100399.69;107411;1254;112141;-67
2023/06/17 03:10:04;;;;;;;;;;;;;;;19.16;94.06;100399.83;107305;1254;109174;-65
2023/06/17 03:12:38;;;;;;;;;;;;;;;19.18;93.82;100403.71;107394;1257;108228;-65
2023/06/17 03:15:08;;;;;;;;;;;;;;;19.19;93.74;100404.13;107400;1254;99077;-65
2023/06/17 03:17:37;;;;;;;;;;;;;;;19.18;93.60;100410.27;107171;1254;99174;-64
2023/06/17 03:20:08;;;;;;;;;;;;;;;19.15;93.64;100408.81;107401;1257;113685;-65
2023/06/17 03:22:37;;;;;;;;;;;;;;;19.13;93.55;100407.80;107285;1255;108957;-67
2023/06/17 03:25:05;;;;;;;;;;;;;;;19.14;93.98;100410.52;107360;1257;108016;-67
2023/06/17 03:27:33;;;;;;;;;;;;;;;19.12;93.74;100410.47;107249;1256;99215;-66
2023/06/17 03:30:03;;;;;;;;;;;;;;;19.14;93.93;100412.13;107376;1256;99221;-65
2023/06/17 03:32:32;;;;;;;;;;;;;;;19.15;94.04;100415.35;107296;1254;113108;-66
2023/06/17 03:35:02;;;;;;;;;;;;;;;19.17;93.83;100419.99;107391;1255;108828;-66
2023/06/17 03:37:31;;;;;;;;;;;;;;;19.16;93.84;100422.08;107315;1254;108246;-66
2023/06/17 03:39:59;;;;;;;;;;;;;;;19.16;93.72;100423.98;107393;1254;99176;-65
2023/06/17 03:42:28;;;;;;;;;;;;;;;19.18;93.85;100426.98;107300;1254;99269;-65
2023/06/17 03:44:56;;;;;;;;;;;;;;;19.20;94.34;100425.03;107279;1255;113064;-66
2023/06/17 03:47:24;;;;;;;;;;;;;;;19.19;93.96;100427.38;107412;1255;112184;-65
2023/06/17 03:49:52;;;;;;;;;;;;;;;19.20;94.11;100431.31;107349;1254;108577;-65
2023/06/17 03:52:21;;;;;;;;;;;;;;;19.19;93.87;100432.07;107342;1257;99227;-66
2023/06/17 03:54:49;;;;;;;;;;;;;;;19.20;93.99;100427.63;107363;1255;99635;-65
2023/06/17 03:57:18;;;;;;;;;;;;;;;19.23;94.18;100429.94;107350;1254;113528;-65
2023/06/17 03:59:46;;;;;;;;;;;;;;;19.27;93.83;100428.67;107439;1254;108949;-66
2023/06/17 04:02:14;;;;;;;;;;;;;;;19.33;94.00;100426.68;107420;1254;107888;-66
2023/06/17 04:04:43;;;;;;;;;;;;;;;19.37;93.91;100425.58;107421;1254;99206;-65
2023/06/17 04:07:11;;;;;;;;;;;;;;;19.41;93.94;100426.73;107299;1254;99138;-65
2023/06/17 04:09:39;;;;;;;;;;;;;;;19.42;93.44;100416.94;107442;1254;113028;-66
2023/06/17 04:12:18;;;;;;;;;;;;;;;19.48;93.59;100420.83;107442;1254;109797;-65
2023/06/17 04:14:46;;;;;;;;;;;;;;;19.56;93.90;100424.48;107408;1254;108862;-66
2023/06/17 04:17:17;;;;;;;;;;;;;;;19.63;93.67;100423.20;107372;1254;99075;-68
2023/06/17 04:19:46;;;;;;;;;;;;;;;19.69;93.71;100421.88;107397;1254;99074;-67
2023/06/17 04:22:15;;;;;;;;;;;;;;;19.74;93.12;100425.11;107419;1254;113154;-67
2023/06/17 04:24:43;;;;;;;;;;;;;;;19.79;93.12;100422.62;107403;1254;109224;-66
2023/06/17 04:27:11;;;;;;;;;;;;;;;19.80;92.53;100420.77;107356;1254;108268;-66
2023/06/17 04:29:40;;;;;;;;;;;;;;;19.82;92.54;100422.00;107314;1254;99345;-66
2023/06/17 04:32:10;;;;;;;;;;;;;;;19.87;92.27;100414.69;107322;1257;99346;-65
2023/06/17 04:34:42;;;;;;;;;;;;;;;19.88;91.88;100417.66;107367;1254;113151;-65
2023/06/17 04:37:12;;;;;;;;;;;;;;;19.85;91.80;100411.06;107371;1254;109848;-66
2023/06/17 04:39:42;;;;;;;;;;;;;;;19.88;91.98;100414.35;107352;1254;107666;-66
2023/06/17 04:42:10;;;;;;;;;;;;;;;19.94;92.14;100415.49;107297;1254;99318;-67
2023/06/17 04:44:38;;;;;;;;;;;;;;;19.96;92.01;100421.30;107300;1257;99260;-66
2023/06/17 04:47:09;;;;;;;;;;;;;;;19.96;91.65;100421.08;107424;1253;112750;-66
2023/06/17 04:49:41;;;;;;;;;;;;;;;19.92;91.61;100422.30;107579;1254;109947;-66
2023/06/17 04:52:10;;;;;;;;;;;;;;;19.91;92.05;100426.65;107408;1254;107414;-65
2023/06/17 04:54:39;;;;;;;;;;;;;;;19.97;92.16;100421.14;107388;1254;99083;-66
2023/06/17 04:57:10;;;;;;;;;;;;;;;20.08;92.33;100421.98;107418;1254;99150;-66
2023/06/17 04:59:38;;;;;;;;;;;;;;;20.17;92.03;100420.66;107465;1258;112587;-66
2023/06/17 05:02:07;;;;;;;;;;;;;;;20.25;91.90;100427.14;107435;1254;109604;-67
2023/06/17 05:04:35;;;;;;;;;;;;;;;20.38;91.72;100430.76;107385;1260;108067;-64
2023/06/17 05:07:04;;;;;;;;;;;;;;;20.45;90.94;100436.14;107483;1255;99205;-65
2023/06/17 05:09:33;;;;;;;;;;;;;;;20.52;90.42;100435.81;107390;1258;99233;-67
2023/06/17 05:12:02;;;;;;;;;;;;;;;20.56;90.08;100435.77;107504;1254;112320;-65
2023/06/17 05:14:31;;;;;;;;;;;;;;;20.63;89.93;100436.98;107442;1254;109860;-65
2023/06/17 05:16:59;;;;;;;;;;;;;;;20.68;89.32;100441.10;107408;1254;108281;-67
2023/06/17 05:19:27;;;;;;;;;;;;;;;20.71;89.11;100445.09;107467;1254;99290;-65
2023/06/17 05:21:55;;;;;;;;;;;;;;;20.73;88.58;100445.77;107373;1254;99156;-65
2023/06/17 05:24:26;;;;;;;;;;;;;;;20.74;88.35;100445.91;107473;1254;114924;-65
2023/06/17 05:26:55;;;;;;;;;;;;;;;20.77;88.28;100449.70;107443;1254;110493;-66
2023/06/17 05:29:24;;;;;;;;;;;;;;;20.85;88.33;100450.45;107280;1254;107910;-65
2023/06/17 05:31:53;;;;;;;;;;;;;;;20.86;87.28;100454.91;107470;1254;99188;-65
2023/06/17 05:34:21;;;;;;;;;;;;;;;20.83;87.24;100457.22;107331;1254;99589;-65
2023/06/17 05:36:50;;;;;;;;;;;;;;;20.88;87.43;100457.44;107392;1253;112782;-67
2023/06/17 05:39:18;;;;;;;;;;;;;;;20.95;86.92;100459.56;107398;1254;109995;-65
2023/06/17 05:41:46;;;;;;;;;;;;;;;21.02;86.44;100459.09;107387;1254;109030;-64
2023/06/17 05:44:17;;;;;;;;;;;;;;;21.12;86.53;100458.35;107393;1254;99535;-66
2023/06/17 05:46:49;;;;;;;;;;;;;;;21.15;84.52;100458.90;107455;1254;99089;-65
2023/06/17 05:49:18;;;;;;;;;;;;;;;21.07;84.06;100459.80;107296;1257;112548;-68
2023/06/17 05:51:46;;;;;;;;;;;;;;;20.99;84.16;100464.02;107386;1257;110615;-67
2023/06/17 05:54:15;;;;;;;;;;;;;;;20.99;84.28;100461.41;107410;1254;108080;-66
2023/06/17 05:56:43;;;;;;;;;;;;;;;21.06;84.25;100465.21;107239;1254;101065;-67
2023/06/17 05:59:11;;;;;;;;;;;;;;;21.13;84.49;100466.42;107292;1257;99090;-67
2023/06/17 06:01:42;;;;;;;;;;;;;;;21.27;84.58;100463.58;107475;1254;113229;-68
2023/06/17 06:04:10;;;;;;;;;;;;;;;21.39;83.46;100464.13;107488;1254;109043;-65
2023/06/17 06:06:38;;;;;;;;;;;;;;;21.46;83.11;100467.52;107438;1254;107702;-68
2023/06/17 06:09:07;;;;;;;;;;;;;;;21.60;83.21;100469.17;107258;1259;99179;-68
2023/06/17 06:11:35;;;;;;;;;;;;;;;21.78;83.08;100472.42;107276;1254;99242;-69
2023/06/17 06:14:06;;;;;;;;;;;;;;;21.98;82.84;100472.67;107454;1258;113050;-68
2023/06/17 06:16:34;;;;;;;;;;;;;;;22.14;82.22;100474.71;107254;1254;109832;-67
2023/06/17 06:19:03;;;;;;;;;;;;;;;22.29;81.12;100473.94;107264;1254;108187;-65
2023/06/17 06:21:31;;;;;;;;;;;;;;;22.39;80.18;100470.89;107467;1254;99150;-68
2023/06/17 06:23:59;;;;;;;;;;;;;;;22.45;78.29;100470.84;107208;1254;99262;-66
2023/06/17 06:26:32;;;;;;;;;;;;;;;22.47;77.49;100472.96;107506;1257;113634;-66
2023/06/17 06:29:01;;;;;;;;;;;;;;;22.56;78.36;100473.02;107420;1255;110033;-66
2023/06/17 06:31:30;;;;;;;;;;;;;;;22.70;77.51;100470.58;107418;1258;107141;-65
2023/06/17 06:33:58;;;;;;;;;;;;;;;22.84;77.23;100470.46;107427;1254;99266;-66
2023/06/17 06:36:26;;;;;;;;;;;;;;;22.98;76.23;100471.64;107323;1254;99074;-66
2023/06/17 06:38:54;;;;;;;;;;;;;;;23.08;74.32;100477.53;107475;1254;113516;-65
2023/06/17 06:41:23;;;;;;;;;;;;;;;23.08;72.72;100477.36;107458;1254;109578;-66
2023/06/17 06:43:58;;;;;;;;;;;;;;;23.07;72.90;100478.21;107311;1259;108344;-66
2023/06/17 06:46:26;;;;;;;;;;;;;;;23.16;73.74;100476.69;107422;1254;99154;-66
2023/06/17 06:48:55;;;;;;;;;;;;;;;23.20;72.20;100479.00;107504;1253;99201;-66
2023/06/17 06:51:23;;;;;;;;;;;;;;;23.15;71.62;100480.21;107464;1254;112919;-65
2023/06/17 06:53:51;;;;;;;;;;;;;;;23.21;72.27;100482.33;107261;1254;108149;-67
2023/06/17 06:56:19;;;;;;;;;;;;;;;23.32;72.40;100482.58;107319;1254;108324;-66
2023/06/17 06:58:47;;;;;;;;;;;;;;;23.44;71.67;100484.30;107393;1254;99818;-66
2023/06/17 07:01:16;;;;;;;;;;;;;;;23.55;71.78;100486.66;107395;1254;99183;-66
2023/06/17 07:03:44;;;;;;;;;;;;;;;23.67;71.27;100491.26;107448;1254;112645;-69
2023/06/17 07:06:13;;;;;;;;;;;;;;;23.81;71.60;100491.08;107380;1255;109313;-67
2023/06/17 07:08:41;;;;;;;;;;;;;;;23.83;69.97;100489.83;107385;1254;108145;-65
2023/06/17 07:11:09;;;;;;;;;;;;;;;23.86;69.15;100491.98;107384;1254;99223;-66
2023/06/17 07:13:38;;;;;;;;;;;;;;;23.88;68.07;100487.15;107452;1254;99166;-66
2023/06/17 07:16:08;;;;;;;;;;;;;;;23.81;66.17;100489.86;107430;1254;113784;-66
2023/06/17 07:18:36;;;;;;;;;;;;;;;23.76;66.24;100487.75;107437;1260;108758;-67
2023/06/17 07:21:05;;;;;;;;;;;;;;;23.89;65.85;100487.73;107476;1254;108083;-65
2023/06/17 07:23:33;;;;;;;;;;;;;;;24.02;66.58;100490.65;107447;1254;99080;-66
2023/06/17 07:26:02;;;;;;;;;;;;;;;24.09;66.21;100490.98;107432;1258;99057;-67
2023/06/17 07:28:33;;;;;;;;;;;;;;;24.20;66.94;100486.77;107455;1257;113032;-66
2023/06/17 07:31:02;;;;;;;;;;;;;;;24.35;65.97;100491.45;107444;1254;110864;-66
2023/06/17 07:33:31;;;;;;;;;;;;;;;24.51;66.26;100488.12;107398;1254;109689;-66
2023/06/17 07:35:59;;;;;;;;;;;;;;;24.60;65.86;100485.88;107272;1258;99158;-68
2023/06/17 07:38:32;;;;;;;;;;;;;;;24.64;65.90;100486.42;107555;1254;99333;-66
2023/06/17 07:41:01;;;;;;;;;;;;;;;24.74;66.04;100483.72;107420;1257;113673;-66
2023/06/17 07:43:29;;;;;;;;;;;;;;;24.86;65.72;100482.57;107395;1258;110434;-66
2023/06/17 07:45:57;;;;;;;;;;;;;;;24.97;65.61;100488.01;107407;1257;107752;-66
2023/06/17 07:48:26;;;;;;;;;;;;;;;25.06;65.01;100485.61;107490;1253;99185;-65
2023/06/17 07:50:55;;;;;;;;;;;;;;;25.13;65.10;100486.34;107435;1254;99245;-66
2023/06/17 07:53:23;;;;;;;;;;;;;;;25.25;64.35;100486.54;107428;1255;112887;-65
2023/06/17 07:55:52;;;;;;;;;;;;;;;25.28;64.43;100485.61;107400;1259;109413;-66
2023/06/17 07:58:20;;;;;;;;;;;;;;;25.42;64.08;100483.04;107411;1254;106512;-66
2023/06/17 08:00:48;;;;;;;;;;;;;;;25.58;64.22;100477.77;107409;1258;99353;-68
2023/06/17 08:03:16;;;;;;;;;;;;;;;25.80;64.51;100476.48;106655;1254;1006203;-66
2023/06/17 08:05:45;;;;;;;;;;;;;;;26.04;64.27;100476.63;107434;1254;112713;-68
2023/06/17 08:08:13;;;;;;;;;;;;;;;26.21;61.89;100476.08;107437;1254;109555;-66
2023/06/17 08:10:41;;;;;;;;;;;;;;;26.30;61.81;100478.77;107429;1254;107539;-68
2023/06/17 08:13:09;;;;;;;;;;;;;;;26.38;63.12;100474.83;107439;1260;99250;-66
2023/06/17 08:15:38;;;;;;;;;;;;;;;26.55;63.44;100474.56;107394;1254;99197;-65
2023/06/17 08:18:07;;;;;;;;;;;;;;;26.73;63.07;100475.34;107474;1254;113641;-67
2023/06/17 08:20:39;;;;;;;;;;;;;;;26.88;62.88;100476.05;107452;1256;109677;-66
2023/06/17 08:23:07;;;;;;;;;;;;;;;27.00;60.90;100477.89;107464;1254;107518;-68
2023/06/17 08:25:36;;;;;;;;;;;;;;;27.07;60.39;100482.02;107463;1260;99195;-66
2023/06/17 08:28:04;;;;;;;;;;;;;;;27.17;60.33;100478.68;107496;1258;99056;-68
2023/06/17 08:30:32;;;;;;;;;;;;;;;27.27;59.52;100480.98;107484;1254;112518;-65
2023/06/17 08:33:00;;;;;;;;;;;;;;;27.41;58.12;100482.99;107523;1254;109533;-68
2023/06/17 08:35:28;;;;;;;;;;;;;;;27.49;58.33;100482.40;107492;1254;108164;-67
2023/06/17 08:37:57;;;;;;;;;;;;;;;27.65;58.00;100484.96;107475;1254;99181;-66
2023/06/17 08:40:26;;;;;;;;;;;;;;;27.82;57.74;100479.98;107477;1254;99056;-66
2023/06/17 08:43:02;;;;;;;;;;;;;;;28.00;56.72;100481.45;107495;1255;112281;-66
2023/06/17 08:45:30;;;;;;;;;;;;;;;28.14;55.01;100478.75;107486;1254;109155;-67
2023/06/17 08:47:59;;;;;;;;;;;;;;;28.23;54.70;100480.00;107466;1254;107594;-66
2023/06/17 08:50:28;;;;;;;;;;;;;;;28.30;53.23;100480.13;107483;1254;99291;-68
2023/06/17 08:52:56;;;;;;;;;;;;;;;28.34;53.89;100480.31;107483;1254;99253;-67
2023/06/17 08:55:24;;;;;;;;;;;;;;;28.47;53.52;100478.12;107496;1259;113627;-68
2023/06/17 08:57:53;;;;;;;;;;;;;;;28.68;51.88;100479.91;107491;1254;109949;-67
2023/06/17 09:00:21;;;;;;;;;;;;;;;28.80;48.66;100478.29;107449;1256;108355;-65
2023/06/17 09:02:51;;;;;;;;;;;;;;;28.80;48.35;100478.85;107479;1259;99161;-66
2023/06/17 09:05:20;;;;;;;;;;;;;;;28.83;50.19;100480.86;107440;1258;99093;-65
2023/06/17 09:07:48;;;;;;;;;;;;;;;29.05;49.99;100480.40;107431;1254;113114;-66
2023/06/17 09:10:18;;;;;;;;;;;;;;;29.29;49.32;100475.98;107418;1258;109289;-67
2023/06/17 09:12:47;;;;;;;;;;;;;;;29.53;48.80;100478.29;107413;1259;107665;-66
2023/06/17 09:15:16;;;;;;;;;;;;;;;29.70;48.44;100479.48;107414;1260;99786;-66
2023/06/17 09:17:45;;;;;;;;;;;;;;;29.92;47.67;100472.56;107402;1259;99194;-67
2023/06/17 09:20:17;;;;;;;;;;;;;;;30.10;45.94;100467.57;107472;1258;112538;-66
2023/06/17 09:22:46;;;;;;;;;;;;;;;30.23;47.52;100463.69;107436;1254;108628;-66
2023/06/17 09:25:15;;;;;;;;;;;;;;;30.45;46.72;100459.05;107439;1258;108226;-67
2023/06/17 09:27:45;;;;;;;;;;;;;;;30.56;46.13;100456.75;107460;1254;99160;-65
2023/06/17 09:30:35;;;;;;;;;;;;;;;30.58;46.04;100453.80;107399;1254;99197;-66
2023/06/17 09:33:15;;;;;;;;;;;;;;;30.75;46.44;100449.61;107311;1259;113270;-66
2023/06/17 09:35:43;;;;;;;;;;;;;;;30.95;45.17;100444.37;107415;1258;109958;-66
2023/06/17 09:38:15;;;;;;;;;;;;;;;31.08;43.94;100439.90;107248;1257;108365;-65
2023/06/17 09:40:47;;;;;;;;;;;;;;;31.32;44.25;100436.02;107484;1255;99260;-67
2023/06/17 09:43:15;;;;;;;;;;;;;;;31.53;43.95;100432.40;107487;1259;99249;-66
2023/06/17 09:45:55;;;;;;;;;;;;;;;31.69;43.39;100427.44;107474;1258;113084;-66
2023/06/17 09:48:32;;;;;;;;;;;;;;;32.01;43.06;100420.69;107456;1259;109893;-67
2023/06/17 09:51:05;;;;;;;;;;;;;;;32.19;43.06;100418.45;107463;1258;108824;-66
2023/06/17 09:53:34;;;;;;;;;;;;;;;32.37;42.25;100418.88;107499;1255;99253;-67
2023/06/17 09:56:10;;;;;;;;;;;;;;;32.53;41.52;100407.30;107433;1258;99071;-66
2023/06/17 09:58:40;;;;;;;;;;;;;;;32.71;40.77;100406.46;107444;1254;112174;-66
2023/06/17 10:01:12;;;;;;;;;;;;;;;32.85;40.92;100406.30;107466;1259;109932;-67
2023/06/17 10:03:40;;;;;;;;;;;;;;;33.04;41.20;100402.46;107424;1255;108236;-66
2023/06/17 10:06:10;;;;;;;;;;;;;;;33.33;40.45;100395.27;107428;1255;99176;-67
2023/06/17 10:08:42;;;;;;;;;;;;;;;33.31;37.39;100394.61;107410;1260;99047;-67
2023/06/17 10:11:14;;;;;;;;;;;;;;;33.14;38.20;100387.73;107424;1259;112502;-65
2023/06/17 10:13:44;;;;;;;;;;;;;;;33.00;38.52;100385.73;107459;1258;109959;-66
2023/06/17 10:16:14;;;;;;;;;;;;;;;32.78;38.89;100381.95;107449;1254;106935;-67
2023/06/17 10:18:44;;;;;;;;;;;;;;;32.95;39.52;100378.54;107465;1254;99722;-65
2023/06/17 10:21:13;;;;;;;;;;;;;;;33.29;39.43;100373.83;107489;1254;99163;-67
2023/06/17 10:23:42;;;;;;;;;;;;;;;33.75;38.54;100369.08;107485;1254;113452;-66
2023/06/17 10:26:13;;;;;;;;;;;;;;;33.93;37.58;100366.83;107392;1255;108577;-68
2023/06/17 10:28:56;;;;;;;;;;;;;;;34.16;37.19;100361.40;107420;1260;108395;-69
2023/06/17 10:31:28;;;;;;;;;;;;;;;34.22;35.34;100359.76;107407;1256;99203;-69
2023/06/17 10:34:00;;;;;;;;;;;;;;;34.33;37.12;100353.93;107484;1259;99170;-68
2023/06/17 10:36:28;;;;;;;;;;;;;;;34.50;36.02;100353.75;107487;1254;112257;-67
2023/06/17 10:38:57;;;;;;;;;;;;;;;34.70;36.16;100353.27;107444;1255;108850;-68
2023/06/17 10:41:50;;;;;;;;;;;;;;;35.43;35.16;100349.01;107439;1253;107872;-66
2023/06/17 10:44:28;;;;;;;;;;;;;;;35.97;32.09;100345.34;107364;1254;99817;-69
2023/06/17 10:46:57;;;;;;;;;;;;;;;36.21;31.84;100337.23;107443;1257;99322;-67
2023/06/17 10:49:35;;;;;;;;;;;;;;;36.80;31.32;100336.52;107478;1260;112804;-68
2023/06/17 10:52:04;;;;;;;;;;;;;;;37.02;30.57;100333.98;107468;1255;108563;-67
2023/06/17 10:54:43;;;;;;;;;;;;;;;36.96;30.81;100334.73;107409;1254;108549;-65
2023/06/17 10:57:11;;;;;;;;;;;;;;;36.79;31.12;100329.41;107408;1254;99223;-65
2023/06/17 10:59:39;;;;;;;;;;;;;;;36.69;31.64;100326.99;107404;1255;99256;-66
2023/06/17 11:02:07;;;;;;;;;;;;;;;36.49;31.51;100322.58;107449;1256;113727;-65
2023/06/17 11:04:40;;;;;;;;;;;;;;;36.31;29.66;100321.88;107425;1257;109788;-66
2023/06/17 11:07:09;;;;;;;;;;;;;;;36.61;30.54;100322.38;107396;1254;107704;-66
2023/06/17 11:09:37;;;;;;;;;;;;;;;37.05;28.77;100322.90;107401;1254;99182;-67
2023/06/17 11:12:07;;;;;;;;;;;;;;;36.89;29.23;100330.24;107410;1254;99293;-66
2023/06/17 11:14:37;;;;;;;;;;;;;;;36.81;29.59;100325.76;107452;1258;112035;-66
2023/06/17 11:17:07;;;;;;;;;;;;;;;36.99;30.14;100326.09;107299;1255;109069;-65
2023/06/17 11:19:36;;;;;;;;;;;;;;;37.53;28.91;100323.27;107391;1254;106928;-65
2023/06/17 11:22:04;;;;;;;;;;;;;;;38.06;28.56;100324.42;107401;1254;99127;-65
2023/06/17 11:24:35;;;;;;;;;;;;;;;38.26;27.86;100324.41;107410;1254;99179;-66
2023/06/17 11:27:10;;;;;;;;;;;;;;;38.38;27.40;100322.08;107377;1254;113391;-65
2023/06/17 11:29:42;;;;;;;;;;;;;;;38.23;27.42;100323.50;107385;1254;109152;-66
2023/06/17 11:32:10;;;;;;;;;;;;;;;37.82;27.59;100320.63;107359;1254;108269;-66
2023/06/17 11:34:40;;;;;;;;;;;;;;;37.35;28.26;100315.47;107316;1258;99821;-66
2023/06/17 11:37:10;;;;;;;;;;;;;;;37.03;29.24;100306.75;107361;1254;99257;-65
2023/06/17 11:39:40;;;;;;;;;;;;;;;36.83;28.73;100301.51;107405;1254;113385;-66
2023/06/17 11:42:09;;;;;;;;;;;;;;;36.71;28.49;100294.61;107404;1254;109553;-64
2023/06/17 11:44:37;;;;;;;;;;;;;;;37.19;28.69;100290.11;107420;1254;107760;-67
2023/06/17 11:47:07;;;;;;;;;;;;;;;38.09;27.83;100286.03;107390;1254;99172;-67
2023/06/17 11:49:40;;;;;;;;;;;;;;;39.00;26.16;100279.21;107374;1254;99297;-68
2023/06/17 11:52:11;;;;;;;;;;;;;;;39.51;25.99;100279.65;107400;1254;112952;-66
2023/06/17 11:54:49;;;;;;;;;;;;;;;39.51;25.33;100276.99;107445;1254;109992;-66
2023/06/17 11:57:25;;;;;;;;;;;;;;;39.64;26.12;100275.70;107418;1254;107723;-67
2023/06/17 12:00:04;;;;;;;;;;;;;;;39.69;25.68;100279.02;107410;1254;99198;-69
2023/06/17 12:02:44;;;;;;;;;;;;;;;39.62;25.10;100280.96;107420;1254;99144;-67
2023/06/17 12:05:13;;;;;;;;;;;;;;;39.35;25.15;100279.55;107393;1257;113651;-65
2023/06/17 12:07:42;;;;;;;;;;;;;;;38.63;24.80;100281.11;107483;1254;109001;-68
2023/06/17 12:10:11;;;;;;;;;;;;;;;38.01;25.41;100280.68;107436;1254;109751;-66
2023/06/17 12:12:40;;;;;;;;;;;;;;;37.43;26.35;100272.31;107380;1254;99685;-71
2023/06/17 12:15:09;;;;;;;;;;;;;;;37.12;26.86;100275.42;107410;1254;99155;-71
2023/06/17 12:17:51;;;;;;;;;;;;;;;37.37;27.15;100268.19;107493;1257;112594;-70
2023/06/17 12:20:19;;;;;;;;;;;;;;;37.93;27.32;100267.74;107459;1257;108919;-71
2023/06/17 12:22:49;;;;;;;;;;;;;;;38.68;25.65;100269.52;107430;1254;108384;-69
2023/06/17 12:25:18;;;;;;;;;;;;;;;38.88;25.42;100267.15;107370;1254;99253;-68
2023/06/17 12:27:49;;;;;;;;;;;;;;;38.59;25.69;100264.81;107450;1254;99163;-66
2023/06/17 12:30:20;;;;;;;;;;;;;;;38.08;26.25;100258.98;107440;1254;113324;-67
2023/06/17 12:32:50;;;;;;;;;;;;;;;37.61;27.01;100260.53;107416;1254;109750;-67